Time;durP1;ratioP1;P1;durP2;ratioP2;P2;SDS_P1;SDS_P2;PMS_P1;PMS_P2;Temp;Humidity;BMP_temperature;BMP_pressure;BME280_temperature;BME280_humidity;BME280_pressure;Samples;Min_cycle;Max_cycle;Signal;HPM_P1;HPM_P2
2023/08/13 00:01:35;;;;;;;45.25;24.88;;;14.20;99.90;;;;;;4966969;28;20517;-71
2023/08/13 00:04:03;;;;;;;40.63;25.20;;;14.20;99.90;;;;;;4972329;28;20054;-72
2023/08/13 00:06:30;;;;;;;49.55;25.42;;;14.30;99.90;;;;;;4967654;28;20051;-72
2023/08/13 00:08:58;;;;;;;53.15;26.08;;;14.30;99.90;;;;;;4972388;28;20049;-72
2023/08/13 00:11:25;;;;;;;36.85;22.45;;;14.40;99.90;;;;;;4967879;28;20509;-71
2023/08/13 00:13:52;;;;;;;43.78;23.95;;;14.30;99.90;;;;;;4985153;28;20332;-70
2023/08/13 00:16:19;;;;;;;36.13;21.73;;;14.30;99.90;;;;;;4972950;28;20050;-71
2023/08/13 00:18:46;;;;;;;45.03;22.17;;;14.40;99.90;;;;;;4968193;28;20046;-70
2023/08/13 00:21:13;;;;;;;48.30;24.95;;;14.40;99.90;;;;;;4965137;28;20113;-72
2023/08/13 00:23:39;;;;;;;63.75;27.20;;;14.30;99.90;;;;;;4967597;28;20529;-71
2023/08/13 00:26:06;;;;;;;65.78;27.48;;;14.30;99.90;;;;;;4970302;28;20042;-73
2023/08/13 00:28:33;;;;;;;64.90;28.58;;;14.30;99.90;;;;;;4967596;28;20042;-70
2023/08/13 00:31:00;;;;;;;61.42;26.45;;;14.20;99.90;;;;;;4968077;28;20070;-72
2023/08/13 00:33:27;;;;;;;61.67;28.08;;;14.20;99.90;;;;;;4972140;28;20053;-70
2023/08/13 00:35:53;;;;;;;53.83;27.35;;;14.20;99.90;;;;;;4984060;28;20046;-71
2023/08/13 00:38:20;;;;;;;48.00;25.13;;;14.20;99.90;;;;;;4969321;28;20058;-72
2023/08/13 00:40:47;;;;;;;49.90;25.13;;;14.10;99.90;;;;;;4960506;28;20121;-72
2023/08/13 00:43:14;;;;;;;55.05;25.05;;;13.90;99.90;;;;;;4960057;28;20125;-70
2023/08/13 00:45:41;;;;;;;49.95;24.15;;;13.90;99.90;;;;;;4966771;28;20050;-70
2023/08/13 00:48:09;;;;;;;35.13;20.20;;;13.80;99.90;;;;;;4972399;28;20038;-73
2023/08/13 00:50:36;;;;;;;42.05;20.33;;;13.70;99.90;;;;;;4966113;28;20042;-71
2023/08/13 00:53:06;;;;;;;36.80;19.08;;;13.70;99.90;;;;;;4967923;28;20051;-72
2023/08/13 00:55:33;;;;;;;38.75;20.35;;;13.70;99.90;;;;;;4966835;28;20046;-72
2023/08/13 00:58:00;;;;;;;53.58;24.52;;;13.50;99.90;;;;;;4969688;28;20050;-72
2023/08/13 01:00:27;;;;;;;43.95;27.10;;;13.50;99.90;;;;;;4969565;28;20050;-72
2023/08/13 01:02:56;;;;;;;34.03;22.05;;;13.40;99.90;;;;;;4966457;28;20046;-72
2023/08/13 01:05:32;;;;;;;37.88;21.48;;;13.50;99.90;;;;;;4971810;28;20614;-72
2023/08/13 01:08:10;;;;;;;33.25;21.85;;;13.50;99.90;;;;;;4971922;28;20061;-71
2023/08/13 01:10:37;;;;;;;38.65;22.63;;;13.60;99.90;;;;;;4970859;28;20531;-71
2023/08/13 01:13:07;;;;;;;35.35;21.52;;;13.60;99.90;;;;;;4971908;28;20034;-72
2023/08/13 01:15:38;;;;;;;38.65;21.00;;;13.70;99.90;;;;;;4964255;28;20108;-71
2023/08/13 01:18:07;;;;;;;40.92;21.45;;;13.60;99.90;;;;;;4970802;28;20042;-71
2023/08/13 01:20:42;;;;;;;37.97;21.42;;;13.60;99.90;;;;;;4968759;28;20061;-71
2023/08/13 01:23:09;;;;;;;38.22;21.30;;;13.50;99.90;;;;;;4974555;28;20050;-72
2023/08/13 01:25:36;;;;;;;39.45;21.63;;;13.50;99.90;;;;;;4951408;28;20505;-72
2023/08/13 01:28:09;;;;;;;30.23;20.10;;;13.40;99.90;;;;;;4974586;28;20486;-71
2023/08/13 01:30:49;;;;;;;42.95;21.98;;;13.40;99.90;;;;;;4968018;28;20042;-72
2023/08/13 01:33:26;;;;;;;35.22;20.80;;;13.20;99.90;;;;;;4967533;28;20038;-72
2023/08/13 01:35:57;;;;;;;35.55;20.45;;;13.20;99.90;;;;;;4968623;28;20053;-71
2023/08/13 01:38:25;;;;;;;35.38;19.50;;;13.20;99.90;;;;;;4986877;28;20046;-72
2023/08/13 01:40:51;;;;;;;27.42;18.58;;;13.10;99.90;;;;;;4964298;28;21479;-72
2023/08/13 01:43:18;;;;;;;30.80;19.40;;;13.10;99.90;;;;;;4967460;28;20089;-72
2023/08/13 01:45:46;;;;;;;35.72;20.25;;;13.10;99.90;;;;;;4948554;28;20713;-71
2023/08/13 01:48:13;;;;;;;37.30;21.02;;;13.10;99.90;;;;;;4971659;28;20042;-71
2023/08/13 01:50:41;;;;;;;30.42;20.00;;;13.00;99.90;;;;;;4966254;28;20046;-72
2023/08/13 01:53:07;;;;;;;30.08;20.02;;;13.20;99.90;;;;;;4967640;28;20056;-71
2023/08/13 01:55:34;;;;;;;33.00;21.63;;;13.20;99.90;;;;;;4967995;28;20053;-72
2023/08/13 01:58:01;;;;;;;35.65;21.23;;;13.30;99.90;;;;;;4968791;28;20057;-70
2023/08/13 02:00:28;;;;;;;44.70;23.45;;;13.40;99.90;;;;;;4983171;28;20443;-72
2023/08/13 02:02:55;;;;;;;37.50;23.38;;;13.40;99.90;;;;;;4967196;28;20043;-72
2023/08/13 02:05:22;;;;;;;39.53;22.17;;;13.50;99.90;;;;;;4953860;28;20050;-72
2023/08/13 02:07:49;;;;;;;33.70;20.77;;;13.50;99.90;;;;;;4967037;28;20635;-72
2023/08/13 02:10:16;;;;;;;41.70;22.20;;;13.60;99.90;;;;;;4981797;28;20042;-71
2023/08/13 02:12:43;;;;;;;45.03;24.08;;;13.60;99.90;;;;;;4973693;28;20042;-72
2023/08/13 02:15:10;;;;;;;38.72;24.08;;;13.60;99.90;;;;;;4970037;28;20114;-71
2023/08/13 02:17:43;;;;;;;40.25;23.75;;;13.60;99.90;;;;;;4969058;28;20232;-71
2023/08/13 02:20:11;;;;;;;36.90;22.73;;;13.60;99.90;;;;;;4966199;28;20043;-72
2023/08/13 02:22:38;;;;;;;42.08;21.17;;;13.50;99.90;;;;;;4966344;28;20104;-71
2023/08/13 02:25:06;;;;;;;36.92;22.52;;;13.40;99.90;;;;;;4969938;28;20058;-72
2023/08/13 02:27:32;;;;;;;31.27;19.52;;;13.40;99.90;;;;;;4968251;28;20089;-70
2023/08/13 02:30:00;;;;;;;29.83;20.50;;;13.30;99.90;;;;;;4952335;28;20540;-72
2023/08/13 02:32:27;;;;;;;31.13;18.27;;;13.20;99.90;;;;;;4987184;28;20046;-71
2023/08/13 02:34:54;;;;;;;28.50;19.55;;;13.30;99.90;;;;;;4967701;28;20057;-72
2023/08/13 02:37:21;;;;;;;27.83;18.40;;;13.40;99.90;;;;;;4966872;28;20140;-72
2023/08/13 02:39:48;;;;;;;28.85;19.42;;;13.40;99.90;;;;;;4966462;28;20120;-72
2023/08/13 02:42:15;;;;;;;35.28;19.92;;;13.60;99.90;;;;;;4960924;28;20042;-72
2023/08/13 02:44:42;;;;;;;34.80;19.88;;;13.70;99.90;;;;;;4968153;28;20038;-72
2023/08/13 02:47:09;;;;;;;33.28;20.83;;;13.60;99.90;;;;;;4952108;28;20547;-71
2023/08/13 02:49:37;;;;;;;35.33;19.42;;;13.80;99.90;;;;;;4963773;28;20050;-72
2023/08/13 02:52:04;;;;;;;34.47;18.88;;;13.80;99.90;;;;;;4964682;28;20358;-72
2023/08/13 02:54:30;;;;;;;26.20;17.58;;;13.60;99.90;;;;;;4969982;28;20039;-71
2023/08/13 02:56:59;;;;;;;27.60;17.83;;;13.70;99.90;;;;;;4963398;28;20046;-71
2023/08/13 02:59:26;;;;;;;27.48;19.35;;;13.70;99.90;;;;;;4986041;28;20061;-72
2023/08/13 03:01:53;;;;;;;27.40;19.30;;;13.70;99.90;;;;;;4963330;28;20050;-72
2023/08/13 03:04:20;;;;;;;27.38;19.05;;;13.80;99.90;;;;;;4968013;28;20050;-71
2023/08/13 03:06:46;;;;;;;27.95;20.23;;;13.80;99.90;;;;;;4951709;28;20133;-71
2023/08/13 03:09:21;;;;;;;30.83;18.23;;;14.00;99.90;;;;;;4972391;28;20565;-70
2023/08/13 03:11:49;;;;;;;37.35;17.75;;;14.00;99.90;;;;;;4966051;28;20070;-72
2023/08/13 03:14:18;;;;;;;28.42;18.60;;;14.10;99.90;;;;;;4971768;28;20035;-72
2023/08/13 03:16:45;;;;;;;28.67;19.23;;;14.00;99.90;;;;;;4968489;28;20109;-71
2023/08/13 03:19:13;;;;;;;29.35;18.30;;;14.10;99.90;;;;;;4949520;28;20053;-72
2023/08/13 03:21:45;;;;;;;28.35;18.40;;;14.30;99.90;;;;;;4964599;28;20610;-72
2023/08/13 03:24:12;;;;;;;22.98;17.30;;;14.30;99.90;;;;;;4972597;28;20536;-72
2023/08/13 03:26:43;;;;;;;24.38;17.95;;;14.30;99.90;;;;;;4965384;28;20047;-72
2023/08/13 03:29:10;;;;;;;26.55;18.52;;;14.40;99.90;;;;;;4950654;28;20050;-73
2023/08/13 03:31:38;;;;;;;27.63;18.60;;;14.40;99.90;;;;;;4970726;28;20664;-71
2023/08/13 03:34:16;;;;;;;26.08;18.55;;;14.40;99.90;;;;;;4960483;28;20108;-72
2023/08/13 03:36:43;;;;;;;19.98;16.55;;;14.40;99.90;;;;;;4958039;28;20035;-71
2023/08/13 03:39:10;;;;;;;25.30;17.90;;;14.30;99.90;;;;;;4969542;28;20563;-72
2023/08/13 03:41:37;;;;;;;22.20;16.20;;;14.30;99.90;;;;;;4977415;28;20054;-71
2023/08/13 03:44:04;;;;;;;22.35;17.58;;;14.30;99.90;;;;;;4964923;28;20990;-72
2023/08/13 03:46:32;;;;;;;23.52;16.98;;;14.50;99.90;;;;;;4968326;28;20594;-72
2023/08/13 03:48:59;;;;;;;22.27;16.95;;;14.40;99.90;;;;;;4968813;28;20058;-73
2023/08/13 03:51:26;;;;;;;21.80;16.58;;;14.40;99.90;;;;;;4973394;28;20069;-71
2023/08/13 03:53:54;;;;;;;21.58;16.80;;;14.50;99.90;;;;;;4965621;28;20043;-72
2023/08/13 03:56:24;;;;;;;21.13;16.33;;;14.50;99.90;;;;;;4970340;28;20203;-72
2023/08/13 03:58:51;;;;;;;28.70;17.27;;;14.50;99.90;;;;;;4953136;28;20042;-72
2023/08/13 04:01:18;;;;;;;26.63;16.00;;;14.60;99.90;;;;;;4954805;28;20154;-72
2023/08/13 04:03:48;;;;;;;21.02;15.80;;;14.50;99.90;;;;;;4971446;28;20082;-73
2023/08/13 04:06:15;;;;;;;21.85;16.13;;;14.50;99.90;;;;;;4970554;28;20381;-73
2023/08/13 04:08:42;;;;;;;23.90;15.07;;;14.60;99.90;;;;;;4971502;28;20042;-71
2023/08/13 04:11:10;;;;;;;25.15;16.88;;;14.60;99.90;;;;;;4980192;28;20038;-72
2023/08/13 04:13:37;;;;;;;19.65;15.48;;;14.70;99.90;;;;;;4968220;28;20688;-72
2023/08/13 04:16:05;;;;;;;23.70;15.82;;;14.70;99.90;;;;;;4949030;28;20046;-71
2023/08/13 04:18:32;;;;;;;24.05;16.70;;;14.70;99.90;;;;;;4984202;28;20038;-71
2023/08/13 04:20:59;;;;;;;26.35;15.75;;;14.70;99.90;;;;;;4963409;28;20038;-71
2023/08/13 04:23:26;;;;;;;21.48;15.48;;;14.70;99.90;;;;;;4954548;28;20121;-72
2023/08/13 04:25:53;;;;;;;24.35;16.30;;;14.60;99.90;;;;;;4966402;28;20395;-70
2023/08/13 04:28:20;;;;;;;24.75;15.65;;;14.60;99.90;;;;;;4951295;28;20043;-71
2023/08/13 04:30:47;;;;;;;23.70;17.63;;;14.60;99.90;;;;;;4961949;28;20093;-71
2023/08/13 04:33:15;;;;;;;23.23;15.98;;;14.70;99.90;;;;;;4964390;28;20042;-70
2023/08/13 04:35:41;;;;;;;28.73;17.00;;;14.70;99.90;;;;;;4965648;28;20101;-70
2023/08/13 04:38:09;;;;;;;26.85;17.70;;;14.60;99.90;;;;;;4962686;28;20040;-71
2023/08/13 04:40:40;;;;;;;24.67;16.80;;;14.70;99.90;;;;;;4968273;28;20050;-71
2023/08/13 04:43:07;;;;;;;22.33;17.20;;;14.80;99.90;;;;;;4963288;28;20038;-70
2023/08/13 04:45:34;;;;;;;28.02;17.13;;;14.80;99.90;;;;;;4951821;28;20120;-73
2023/08/13 04:48:01;;;;;;;24.45;17.30;;;14.90;99.90;;;;;;4964247;28;20038;-72
2023/08/13 04:50:33;;;;;;;27.98;17.48;;;14.90;99.90;;;;;;4963582;28;20054;-71
2023/08/13 04:53:00;;;;;;;31.65;18.05;;;14.90;99.90;;;;;;4961067;28;20047;-70
2023/08/13 04:55:27;;;;;;;27.67;17.88;;;14.90;99.90;;;;;;4967831;28;20046;-70
2023/08/13 04:57:54;;;;;;;20.95;17.15;;;14.80;99.90;;;;;;4965419;28;20046;-73
2023/08/13 05:00:21;;;;;;;25.55;17.33;;;14.80;99.90;;;;;;4964959;28;20046;-72
2023/08/13 05:02:48;;;;;;;26.55;17.38;;;14.80;99.90;;;;;;4965960;28;20046;-72
2023/08/13 05:05:15;;;;;;;21.88;18.00;;;14.80;99.90;;;;;;4968074;28;20049;-72
2023/08/13 05:07:42;;;;;;;24.40;17.33;;;14.90;99.90;;;;;;4968107;28;20121;-72
2023/08/13 05:10:13;;;;;;;21.15;17.25;;;14.90;99.90;;;;;;4963682;28;20045;-73
2023/08/13 05:12:40;;;;;;;25.05;18.15;;;15.00;99.90;;;;;;4965942;28;20042;-72
2023/08/13 05:15:08;;;;;;;23.83;17.70;;;15.10;99.90;;;;;;4966600;28;20038;-71
2023/08/13 05:17:36;;;;;;;26.02;17.70;;;15.10;99.90;;;;;;4965579;28;20050;-72
2023/08/13 05:20:05;;;;;;;22.30;17.95;;;14.90;99.90;;;;;;4958285;28;20518;-71
2023/08/13 05:22:32;;;;;;;22.05;18.05;;;15.00;99.90;;;;;;4970224;28;20046;-71
2023/08/13 05:24:59;;;;;;;21.35;17.95;;;15.20;99.90;;;;;;4967600;28;20050;-71
2023/08/13 05:27:26;;;;;;;22.27;16.92;;;15.30;99.90;;;;;;4962030;28;20049;-71
2023/08/13 05:29:53;;;;;;;18.92;16.88;;;15.40;99.90;;;;;;4964229;28;20541;-71
2023/08/13 05:32:22;;;;;;;22.05;16.65;;;15.50;99.90;;;;;;4965013;28;20112;-70
2023/08/13 05:34:48;;;;;;;18.80;16.92;;;15.50;99.90;;;;;;4963996;28;20050;-71
2023/08/13 05:37:16;;;;;;;22.98;18.33;;;15.60;99.90;;;;;;4952197;28;20038;-71
2023/08/13 05:39:43;;;;;;;18.95;16.38;;;15.60;99.90;;;;;;4967677;28;20069;-71
2023/08/13 05:42:10;;;;;;;16.25;14.68;;;15.60;99.90;;;;;;4962305;28;20046;-72
2023/08/13 05:44:38;;;;;;;17.30;14.40;;;15.60;99.90;;;;;;4969097;28;20054;-72
2023/08/13 05:47:05;;;;;;;18.70;13.15;;;15.70;99.90;;;;;;4958515;28;20050;-72
2023/08/13 05:49:32;;;;;;;14.43;13.02;;;15.70;99.90;;;;;;4970077;28;20045;-72
2023/08/13 05:51:59;;;;;;;13.90;12.57;;;15.80;99.90;;;;;;4963166;28;20049;-72
2023/08/13 05:54:26;;;;;;;17.90;13.23;;;15.80;99.90;;;;;;4967739;28;20048;-73
2023/08/13 05:56:53;;;;;;;13.85;12.55;;;15.80;99.90;;;;;;4965706;28;20035;-71
2023/08/13 05:59:21;;;;;;;13.65;11.75;;;15.90;99.90;;;;;;4968252;28;20062;-73
2023/08/13 06:01:50;;;;;;;12.73;11.63;;;16.00;99.90;;;;;;4963863;28;20090;-73
2023/08/13 06:04:20;;;;;;;16.23;12.35;;;16.00;99.90;;;;;;4958249;28;20744;-73
2023/08/13 06:06:49;;;;;;;15.23;10.85;;;16.10;99.90;;;;;;4959105;28;20627;-72
2023/08/13 06:09:16;;;;;;;15.32;9.48;;;16.20;99.90;;;;;;4953621;28;20071;-73
2023/08/13 06:11:43;;;;;;;11.73;9.18;;;16.40;99.90;;;;;;4963566;28;20560;-72
2023/08/13 06:14:10;;;;;;;14.63;9.13;;;16.40;99.90;;;;;;4969622;28;20612;-71
2023/08/13 06:16:36;;;;;;;12.82;9.02;;;16.60;99.90;;;;;;4967583;28;20113;-72
2023/08/13 06:19:03;;;;;;;13.35;8.20;;;16.80;99.90;;;;;;4957441;28;20404;-73
2023/08/13 06:21:30;;;;;;;15.80;8.27;;;16.90;99.90;;;;;;4962764;28;20038;-72
2023/08/13 06:23:57;;;;;;;12.75;9.02;;;17.10;99.90;;;;;;4965859;28;20069;-70
2023/08/13 06:26:24;;;;;;;10.65;8.13;;;17.10;99.90;;;;;;4964780;28;20472;-73
2023/08/13 06:28:50;;;;;;;14.45;9.88;;;17.10;99.90;;;;;;4981972;28;20074;-70
2023/08/13 06:31:20;;;;;;;10.57;9.32;;;17.20;99.90;;;;;;4959650;28;20504;-70
2023/08/13 06:34:07;;;;;;;13.80;8.50;;;17.20;99.90;;;;;;4963411;28;20042;-70
2023/08/13 06:36:34;;;;;;;11.90;9.23;;;17.30;99.90;;;;;;4966830;28;20129;-71
2023/08/13 06:39:00;;;;;;;8.63;7.32;;;17.30;99.90;;;;;;4963865;28;20042;-70
2023/08/13 06:41:27;;;;;;;10.93;7.70;;;17.50;99.90;;;;;;4964270;28;20046;-70
2023/08/13 06:43:56;;;;;;;12.80;7.97;;;17.60;99.90;;;;;;4969136;28;20042;-71
2023/08/13 06:46:23;;;;;;;9.82;8.02;;;17.50;99.90;;;;;;4968110;28;20121;-71
2023/08/13 06:48:50;;;;;;;10.70;9.63;;;17.60;99.90;;;;;;4974882;28;20488;-73
2023/08/13 06:51:16;;;;;;;12.60;9.13;;;17.70;99.90;;;;;;4967378;28;20077;-72
2023/08/13 06:53:43;;;;;;;20.70;11.38;;;17.80;99.90;;;;;;4967177;28;20070;-72
2023/08/13 06:56:10;;;;;;;13.52;11.00;;;17.90;99.90;;;;;;4963657;28;20050;-72
2023/08/13 06:58:37;;;;;;;12.05;10.48;;;18.00;99.90;;;;;;4970712;28;20054;-71
2023/08/13 07:01:04;;;;;;;18.42;13.07;;;18.10;99.90;;;;;;4966426;28;20616;-71
2023/08/13 07:03:32;;;;;;;15.52;14.52;;;18.30;99.90;;;;;;4967733;28;20050;-72
2023/08/13 07:05:59;;;;;;;18.30;15.90;;;18.30;99.90;;;;;;4971577;28;20037;-73
2023/08/13 07:08:26;;;;;;;17.35;16.17;;;18.30;99.90;;;;;;4970522;28;20927;-72
2023/08/13 07:10:53;;;;;;;17.20;14.57;;;18.30;99.90;;;;;;4979634;28;20058;-71
2023/08/13 07:13:20;;;;;;;14.68;13.55;;;18.40;99.90;;;;;;4950981;28;20058;-71
2023/08/13 07:15:47;;;;;;;17.45;15.75;;;18.50;99.90;;;;;;4969288;28;20070;-73
2023/08/13 07:18:14;;;;;;;17.65;16.02;;;18.40;99.90;;;;;;4962766;28;20053;-72
2023/08/13 07:20:40;;;;;;;18.25;16.50;;;18.40;99.90;;;;;;4964602;28;20082;-72
2023/08/13 07:23:07;;;;;;;18.35;16.25;;;18.30;99.90;;;;;;4967308;28;20069;-71
2023/08/13 07:25:34;;;;;;;18.55;16.75;;;18.30;99.90;;;;;;4969382;28;20050;-72
2023/08/13 07:28:01;;;;;;;17.08;15.57;;;18.30;99.90;;;;;;4950907;28;20062;-72
2023/08/13 07:30:28;;;;;;;17.80;15.95;;;18.30;99.90;;;;;;4967523;28;20072;-73
2023/08/13 07:32:55;;;;;;;18.05;16.33;;;18.30;99.90;;;;;;4969780;28;20049;-72
2023/08/13 07:35:22;;;;;;;17.25;16.02;;;18.40;99.90;;;;;;4968607;28;20054;-72
2023/08/13 07:37:49;;;;;;;17.50;16.00;;;18.40;99.90;;;;;;4967709;28;20115;-72
2023/08/13 07:40:16;;;;;;;18.67;16.90;;;18.50;99.90;;;;;;4981479;28;20591;-72
2023/08/13 07:42:43;;;;;;;18.98;16.83;;;18.40;99.90;;;;;;4966496;28;21001;-73
2023/08/13 07:45:10;;;;;;;23.13;17.80;;;18.60;99.90;;;;;;4966967;28;20594;-72
2023/08/13 07:47:38;;;;;;;18.48;16.77;;;18.60;99.90;;;;;;4964719;28;20051;-72
2023/08/13 07:50:05;;;;;;;19.65;16.90;;;18.60;99.90;;;;;;4963256;28;20039;-73
2023/08/13 07:52:34;;;;;;;18.88;17.30;;;18.60;99.90;;;;;;4964564;28;20042;-73
2023/08/13 07:55:01;;;;;;;20.45;18.33;;;18.80;99.90;;;;;;4966532;28;20042;-72
2023/08/13 07:57:29;;;;;;;20.48;18.98;;;19.00;99.90;;;;;;4961321;28;20886;-73
2023/08/13 07:59:55;;;;;;;21.13;19.45;;;19.20;99.90;;;;;;4969113;28;20038;-72
2023/08/13 08:02:23;;;;;;;21.27;19.50;;;19.30;99.90;;;;;;4970928;28;20153;-73
2023/08/13 08:04:50;;;;;;;21.85;20.15;;;19.50;99.90;;;;;;4969834;28;20047;-73
2023/08/13 08:07:18;;;;;;;23.20;21.15;;;19.60;99.90;;;;;;4966786;28;20074;-73
2023/08/13 08:09:45;;;;;;;23.13;21.00;;;19.60;99.90;;;;;;4953121;28;20405;-73
2023/08/13 08:12:12;;;;;;;22.50;20.90;;;19.60;99.90;;;;;;4960038;28;20085;-73
2023/08/13 08:14:39;;;;;;;22.13;20.48;;;19.40;99.90;;;;;;4966150;28;20042;-74
2023/08/13 08:17:07;;;;;;;21.38;19.75;;;19.30;99.90;;;;;;4966330;28;20047;-72
2023/08/13 08:19:33;;;;;;;21.92;20.40;;;19.30;99.90;;;;;;4963866;28;20050;-73
2023/08/13 08:22:01;;;;;;;21.90;19.95;;;19.40;99.90;;;;;;4965400;28;20050;-73
2023/08/13 08:24:27;;;;;;;19.58;18.35;;;19.60;99.90;;;;;;4967825;28;20647;-73
2023/08/13 08:26:55;;;;;;;21.52;19.73;;;19.70;99.90;;;;;;4970338;28;20109;-71
2023/08/13 08:29:21;;;;;;;21.42;19.73;;;19.80;99.90;;;;;;4967139;28;20096;-73
2023/08/13 08:31:48;;;;;;;20.85;19.40;;;19.80;99.90;;;;;;4968355;28;20043;-72
2023/08/13 08:34:15;;;;;;;20.98;19.45;;;19.90;99.90;;;;;;4961651;28;20549;-73
2023/08/13 08:36:41;;;;;;;22.25;20.02;;;20.10;99.90;;;;;;4963867;28;20507;-72
2023/08/13 08:39:08;;;;;;;20.70;19.20;;;20.00;99.90;;;;;;4963480;28;20550;-72
2023/08/13 08:41:39;;;;;;;21.33;19.45;;;20.00;99.90;;;;;;4963409;28;20392;-72
2023/08/13 08:44:07;;;;;;;20.25;19.08;;;19.90;99.90;;;;;;4964640;28;20632;-72
2023/08/13 08:46:36;;;;;;;21.58;20.13;;;19.80;99.90;;;;;;4961278;28;20504;-72
2023/08/13 08:49:09;;;;;;;22.90;21.15;;;19.90;99.90;;;;;;4962734;28;20133;-72
2023/08/13 08:51:37;;;;;;;19.65;18.23;;;20.20;99.90;;;;;;4967391;28;20101;-73
2023/08/13 08:54:04;;;;;;;22.52;20.90;;;20.50;99.90;;;;;;4960808;28;20136;-73
2023/08/13 08:56:33;;;;;;;20.92;19.58;;;20.70;99.90;;;;;;4961094;28;20641;-73
2023/08/13 08:59:00;;;;;;;21.17;19.88;;;20.90;99.90;;;;;;4981221;28;20046;-73
2023/08/13 09:01:27;;;;;;;22.85;21.25;;;20.90;99.90;;;;;;4964837;28;20058;-72
2023/08/13 09:03:54;;;;;;;21.17;19.88;;;21.00;99.90;;;;;;4968685;28;20141;-73
2023/08/13 09:06:21;;;;;;;20.92;19.38;;;21.10;99.90;;;;;;4965155;28;20058;-71
2023/08/13 09:08:49;;;;;;;21.08;19.73;;;20.90;99.90;;;;;;4968121;28;20420;-73
2023/08/13 09:11:18;;;;;;;21.60;20.15;;;20.70;99.90;;;;;;4955091;28;20043;-72
2023/08/13 09:13:49;;;;;;;20.77;19.10;;;20.80;99.90;;;;;;4966069;28;20047;-72
2023/08/13 09:16:16;;;;;;;21.17;19.70;;;20.90;99.90;;;;;;4967151;28;20513;-72
2023/08/13 09:18:44;;;;;;;20.13;18.92;;;20.90;99.90;;;;;;4963899;28;20117;-73
2023/08/13 09:21:13;;;;;;;21.40;20.05;;;20.80;99.90;;;;;;4960373;28;20062;-72
2023/08/13 09:23:40;;;;;;;23.38;21.73;;;20.90;99.90;;;;;;4969538;28;20038;-72
2023/08/13 09:26:07;;;;;;;21.00;19.60;;;21.10;99.90;;;;;;4967625;28;20041;-73
2023/08/13 09:28:42;;;;;;;22.08;20.50;;;21.40;99.90;;;;;;4965937;28;20046;-72
2023/08/13 09:31:09;;;;;;;21.67;20.35;;;21.60;99.90;;;;;;4962262;28;20188;-72
2023/08/13 09:33:36;;;;;;;23.80;22.13;;;21.70;99.90;;;;;;4968146;28;20050;-72
2023/08/13 09:36:03;;;;;;;22.80;21.40;;;21.50;99.90;;;;;;4963580;28;20052;-72
2023/08/13 09:38:30;;;;;;;21.80;20.50;;;21.40;99.90;;;;;;4964918;28;20069;-72
2023/08/13 09:40:57;;;;;;;22.83;21.42;;;21.40;99.90;;;;;;4963341;28;20105;-72
2023/08/13 09:43:26;;;;;;;21.55;19.98;;;21.60;99.90;;;;;;4963057;28;20053;-73
2023/08/13 09:45:56;;;;;;;21.38;20.10;;;22.10;99.90;;;;;;4968498;28;20150;-72
2023/08/13 09:48:26;;;;;;;23.17;21.77;;;22.20;99.90;;;;;;4962872;28;21674;-72
2023/08/13 09:50:55;;;;;;;21.88;20.23;;;22.40;99.90;;;;;;4978848;28;20257;-73
2023/08/13 09:53:24;;;;;;;22.85;21.15;;;22.30;99.90;;;;;;4958687;28;20131;-73
2023/08/13 09:55:54;;;;;;;23.42;22.05;;;22.30;99.90;;;;;;4966471;28;20043;-72
2023/08/13 09:58:21;;;;;;;23.90;22.35;;;22.40;99.90;;;;;;4964882;28;21314;-72
2023/08/13 10:00:49;;;;;;;21.50;20.13;;;22.40;99.90;;;;;;4968823;28;20050;-73
2023/08/13 10:03:18;;;;;;;21.88;20.52;;;22.60;99.90;;;;;;4962811;28;20046;-72
2023/08/13 10:05:45;;;;;;;22.02;20.52;;;22.40;99.90;;;;;;4966991;28;20057;-72
2023/08/13 10:08:12;;;;;;;22.35;20.75;;;22.50;99.90;;;;;;4964333;28;20066;-72
2023/08/13 10:10:40;;;;;;;23.15;21.45;;;22.50;99.90;;;;;;4965212;28;20297;-72
2023/08/13 10:13:07;;;;;;;22.08;20.70;;;22.50;99.90;;;;;;4968828;28;20050;-72
2023/08/13 10:15:36;;;;;;;22.35;20.95;;;22.30;99.90;;;;;;4967682;28;20042;-73
2023/08/13 10:18:03;;;;;;;22.05;20.83;;;22.40;99.90;;;;;;4972551;28;20664;-71
2023/08/13 10:20:42;;;;;;;;;;;22.20;99.90;;;;;;4966066;28;20052;-72
2023/08/13 10:23:10;;;;;;;21.88;20.65;;;22.30;99.90;;;;;;4984928;28;20564;-72
2023/08/13 10:25:39;;;;;;;23.85;22.02;;;22.20;99.90;;;;;;4969729;28;20053;-71
2023/08/13 10:28:22;;;;;;;23.15;21.48;;;22.20;99.90;;;;;;4953109;28;20058;-71
2023/08/13 10:30:48;;;;;;;24.10;22.40;;;22.10;99.90;;;;;;4969882;28;20121;-73
2023/08/13 10:33:15;;;;;;;23.05;21.70;;;22.00;99.90;;;;;;4951468;28;20050;-72
2023/08/13 10:35:43;;;;;;;23.75;21.90;;;22.20;99.90;;;;;;4972570;28;20108;-73
2023/08/13 10:38:10;;;;;;;24.10;22.50;;;22.40;99.90;;;;;;4963473;28;20132;-71
2023/08/13 10:40:59;;;;;;;23.42;21.75;;;22.50;99.90;;;;;;4968583;28;20074;-72
2023/08/13 10:43:25;;;;;;;23.38;21.83;;;22.60;99.90;;;;;;4969321;28;20528;-72
2023/08/13 10:45:52;;;;;;;23.88;22.17;;;22.60;99.90;;;;;;4954237;28;20058;-73
2023/08/13 10:48:29;;;;;;;25.45;23.75;;;22.80;99.90;;;;;;4970188;28;20054;-73
2023/08/13 10:50:58;;;;;;;22.77;21.15;;;23.00;99.90;;;;;;4963350;28;20047;-73
2023/08/13 10:53:27;;;;;;;24.45;22.40;;;23.00;99.90;;;;;;4959941;28;20758;-73
2023/08/13 10:55:59;;;;;;;24.27;22.77;;;23.40;99.90;;;;;;4968711;28;20057;-72
2023/08/13 10:58:39;;;;;;;24.85;23.08;;;23.50;99.90;;;;;;4968864;28;20050;-72
2023/08/13 11:01:09;;;;;;;25.70;23.67;;;23.70;99.90;;;;;;4966002;28;20056;-72
2023/08/13 11:03:44;;;;;;;25.80;23.83;;;23.80;99.90;;;;;;4977362;28;20468;-72
2023/08/13 11:06:11;;;;;;;24.27;22.50;;;23.70;99.90;;;;;;4967863;28;20125;-72
2023/08/13 11:08:40;;;;;;;25.40;23.90;;;23.70;99.90;;;;;;4970153;28;20050;-73
2023/08/13 11:11:15;;;;;;;25.88;23.77;;;23.90;99.90;;;;;;4961737;28;20038;-72
2023/08/13 11:13:42;;;;;;;24.27;22.67;;;23.90;99.90;;;;;;4969997;28;20116;-72
2023/08/13 11:16:08;;;;;;;23.83;22.23;;;23.70;99.90;;;;;;4968546;28;20669;-72
2023/08/13 11:18:38;;;;;;;23.98;22.38;;;23.80;99.90;;;;;;4969392;28;20089;-73
2023/08/13 11:21:06;;;;;;;23.52;22.02;;;23.70;99.90;;;;;;4970224;28;20054;-73
2023/08/13 11:23:35;;;;;;;22.73;21.20;;;23.50;99.90;;;;;;4969505;28;20042;-73
2023/08/13 11:26:04;;;;;;;23.75;22.17;;;23.50;99.90;;;;;;4969504;28;20057;-73
2023/08/13 11:28:32;;;;;;;23.02;21.63;;;23.40;99.90;;;;;;4965814;28;20047;-73
2023/08/13 11:30:59;;;;;;;23.70;22.13;;;23.30;99.90;;;;;;4969949;28;20690;-73
2023/08/13 11:33:26;;;;;;;24.00;22.20;;;23.30;99.90;;;;;;4970024;28;20497;-73
2023/08/13 11:35:54;;;;;;;23.73;22.15;;;23.40;99.90;;;;;;4967767;28;20100;-73
2023/08/13 11:38:21;;;;;;;24.75;23.08;;;23.40;99.90;;;;;;4965229;28;20042;-73
2023/08/13 11:40:49;;;;;;;24.75;22.95;;;23.30;99.90;;;;;;4967306;28;20549;-72
2023/08/13 11:43:18;;;;;;;25.13;23.38;;;23.50;99.90;;;;;;4965122;28;20145;-72
2023/08/13 11:45:47;;;;;;;25.02;23.35;;;23.50;99.90;;;;;;4970080;28;20050;-74
2023/08/13 11:48:22;;;;;;;25.48;23.80;;;23.60;99.90;;;;;;4966480;28;20041;-73
2023/08/13 11:50:55;;;;;;;23.75;22.15;;;23.70;99.90;;;;;;4951891;28;20045;-74
2023/08/13 11:53:44;;;;;;;24.40;22.83;;;24.00;99.90;;;;;;4981529;28;20048;-73
2023/08/13 11:56:12;;;;;;;23.55;21.73;;;24.10;99.90;;;;;;4967075;28;20043;-72
2023/08/13 11:58:40;;;;;;;23.55;22.15;;;24.00;99.90;;;;;;4973684;28;20563;-73
2023/08/13 12:01:10;;;;;;;24.05;22.55;;;23.90;99.90;;;;;;4970842;28;20056;-72
2023/08/13 12:03:40;;;;;;;23.88;22.15;;;23.90;99.90;;;;;;4971438;28;20042;-73
2023/08/13 12:06:07;;;;;;;24.80;23.20;;;23.40;99.90;;;;;;4969229;28;20157;-72
2023/08/13 12:08:34;;;;;;;24.27;22.63;;;22.60;99.90;;;;;;4971051;28;20511;-73
2023/08/13 12:11:01;;;;;;;23.50;21.98;;;22.30;99.90;;;;;;4963068;28;20050;-73
2023/08/13 12:13:29;;;;;;;24.52;22.88;;;22.50;99.90;;;;;;4968951;28;20046;-73
2023/08/13 12:15:55;;;;;;;23.90;22.50;;;22.90;99.90;;;;;;4966229;28;20100;-72
2023/08/13 12:18:22;;;;;;;22.90;21.35;;;23.10;99.90;;;;;;4967022;28;20046;-74
2023/08/13 12:20:49;;;;;;;22.60;21.20;;;23.50;99.90;;;;;;4962925;28;20046;-72
2023/08/13 12:23:19;;;;;;;23.35;21.95;;;23.70;99.90;;;;;;4968594;28;20704;-74
2023/08/13 12:25:46;;;;;;;24.08;22.45;;;23.60;99.90;;;;;;4968059;28;20050;-73
2023/08/13 12:28:14;;;;;;;25.60;23.65;;;23.50;99.90;;;;;;4967852;28;20612;-72
2023/08/13 12:30:40;;;;;;;24.80;23.00;;;23.50;99.90;;;;;;4971421;28;20096;-73
2023/08/13 12:33:07;;;;;;;24.88;23.20;;;23.50;99.90;;;;;;4969609;28;20677;-73